createdAt,value
2023-01-19T00:00:26.066Z,8.20
2023-01-19T00:03:29.594Z,8.27
2023-01-19T00:06:31.277Z,8.30
2023-01-19T00:09:37.647Z,7.63
2023-01-19T00:12:39.084Z,7.40
2023-01-19T00:15:42.959Z,7.95
2023-01-19T00:18:45.188Z,8.30
2023-01-19T00:21:48.731Z,7.25
2023-01-19T00:24:50.271Z,8.02
2023-01-19T00:27:53.761Z,7.78
2023-01-19T00:30:55.283Z,7.88
2023-01-19T00:33:58.870Z,7.75
2023-01-19T00:37:02.433Z,7.45
2023-01-19T00:40:06.847Z,8.27
2023-01-19T00:43:08.411Z,10.43
2023-01-19T00:46:12.069Z,8.77
2023-01-19T00:49:13.717Z,9.05
2023-01-19T00:52:17.228Z,9.93
2023-01-19T00:55:19.044Z,9.65
2023-01-19T00:58:22.881Z,9.65
2023-01-19T01:01:45.833Z,9.30
2023-01-19T01:04:48.016Z,10.73
2023-01-19T01:07:50.054Z,9.95
2023-01-19T01:10:54.554Z,9.13
2023-01-19T01:13:56.072Z,9.30
2023-01-19T01:17:00.304Z,9.05
2023-01-19T01:20:04.005Z,9.40
2023-01-19T01:23:07.491Z,8.75
2023-01-19T01:26:08.955Z,9.48
2023-01-19T01:32:15.239Z,9.23
2023-01-19T01:35:18.870Z,8.77
2023-01-19T01:38:20.352Z,9.93
2023-01-19T01:41:25.574Z,9.50
2023-01-19T01:44:52.857Z,9.30
2023-01-19T01:48:08.121Z,10.23
2023-01-19T01:51:25.746Z,9.27
2023-01-19T01:54:32.015Z,10.07
2023-01-19T01:57:40.395Z,10.75
2023-01-19T02:01:02.752Z,10.45
2023-01-19T02:04:04.566Z,9.98
2023-01-19T02:10:46.981Z,9.75
2023-01-19T02:13:50.755Z,9.95
2023-01-19T02:16:52.395Z,10.30
2023-01-19T02:19:57.372Z,10.88
2023-01-19T02:23:03.431Z,11.67
2023-01-19T02:26:09.112Z,12.32
2023-01-19T02:29:17.356Z,10.73
2023-01-19T02:32:21.329Z,12.13
2023-01-19T02:35:23.978Z,12.48
2023-01-19T02:38:28.522Z,11.10
2023-01-19T02:41:35.881Z,11.13
2023-01-19T02:44:43.244Z,11.60
2023-01-19T02:47:50.478Z,12.75
2023-01-19T02:51:00.320Z,11.05
2023-01-19T02:54:11.625Z,12.13
2023-01-19T02:57:31.952Z,11.95
2023-01-19T03:00:55.668Z,11.20
2023-01-19T03:04:37.965Z,10.95
2023-01-19T03:08:02.823Z,11.77
2023-01-19T03:11:09.764Z,10.38
2023-01-19T03:14:17.833Z,11.75
2023-01-19T03:17:22.150Z,11.35
2023-01-19T03:20:28.162Z,11.07
2023-01-19T03:23:35.826Z,11.30
2023-01-19T03:26:45.011Z,11.10
2023-01-19T03:30:15.360Z,10.80
2023-01-19T03:33:27.651Z,9.90
2023-01-19T03:36:33.601Z,9.75
2023-01-19T03:39:35.331Z,9.90
2023-01-19T03:45:43.593Z,9.05
2023-01-19T03:48:48.066Z,8.15
2023-01-19T03:51:49.701Z,7.93
2023-01-19T03:54:53.181Z,7.43
2023-01-19T03:57:54.715Z,6.95
2023-01-19T04:00:58.255Z,6.18
2023-01-19T04:04:00.222Z,6.25
2023-01-19T04:07:03.702Z,6.05
2023-01-19T04:10:05.699Z,6.75
2023-01-19T04:13:09.215Z,5.75
2023-01-19T04:16:11.440Z,6.60
2023-01-19T04:19:15.004Z,6.70
2023-01-19T04:22:16.450Z,6.20
2023-01-19T04:25:20.214Z,5.65
2023-01-19T04:28:21.665Z,6.00
2023-01-19T04:31:25.181Z,6.45
2023-01-19T04:34:26.859Z,4.90
2023-01-19T04:37:30.367Z,5.97
2023-01-19T04:40:31.823Z,5.40
2023-01-19T04:43:35.349Z,5.43
2023-01-19T04:46:36.878Z,4.95
2023-01-19T04:49:40.543Z,4.78
2023-01-19T04:52:42.023Z,5.50
2023-01-19T04:55:46.161Z,4.68
2023-01-19T04:58:47.658Z,5.18
2023-01-19T05:01:51.229Z,5.82
2023-01-19T05:04:52.798Z,4.75
2023-01-19T05:07:56.407Z,3.78
2023-01-19T05:10:58.027Z,4.35
2023-01-19T05:14:01.486Z,4.00
2023-01-19T05:17:03.110Z,4.78
2023-01-19T05:20:08.616Z,4.15
2023-01-19T05:23:10.144Z,3.90
2023-01-19T05:26:13.651Z,4.57
2023-01-19T05:29:15.300Z,5.03
2023-01-19T05:32:18.831Z,3.85
2023-01-19T05:35:31.283Z,4.70
2023-01-19T05:38:38.949Z,3.67
2023-01-19T05:41:41.439Z,3.35
2023-01-19T05:44:44.936Z,3.75
2023-01-19T05:47:46.445Z,3.70
2023-01-19T05:50:51.119Z,3.20
2023-01-19T05:53:53.167Z,3.22
2023-01-19T05:56:57.092Z,4.40
2023-01-19T05:59:58.689Z,2.40
2023-01-19T06:03:02.669Z,2.28
2023-01-19T06:06:04.671Z,2.47
2023-01-19T06:09:08.170Z,2.28
2023-01-19T06:12:09.648Z,3.05
2023-01-19T06:15:13.856Z,2.88
2023-01-19T06:18:15.377Z,2.40
2023-01-19T06:21:18.862Z,3.08
2023-01-19T06:24:20.499Z,3.17
2023-01-19T06:27:23.981Z,1.95
2023-01-19T06:30:26.327Z,1.95
2023-01-19T06:33:29.996Z,2.35
2023-01-19T06:36:31.692Z,2.15
2023-01-19T06:39:37.233Z,1.77
2023-01-19T06:42:38.757Z,2.30
2023-01-19T06:45:43.738Z,2.13
2023-01-19T06:48:47.253Z,1.73
2023-01-19T06:51:50.686Z,2.08
2023-01-19T06:54:52.138Z,1.52
2023-01-19T06:57:57.893Z,1.98
2023-01-19T07:01:06.490Z,2.17
2023-01-19T07:04:13.411Z,1.80
2023-01-19T07:07:16.087Z,2.55
2023-01-19T07:10:19.594Z,1.77
2023-01-19T07:13:21.163Z,2.00
2023-01-19T07:16:24.834Z,2.28
2023-01-19T07:19:26.351Z,1.50
2023-01-19T07:22:29.788Z,1.35
2023-01-19T07:25:31.358Z,1.75
2023-01-19T07:28:36.392Z,1.83
2023-01-19T07:31:38.261Z,2.43
2023-01-19T07:37:43.487Z,1.50
2023-01-19T07:40:47.047Z,1.92
2023-01-19T07:43:50.750Z,1.90
2023-01-19T07:46:54.248Z,1.98
2023-01-19T07:49:55.759Z,2.03
2023-01-19T07:53:05.475Z,2.10
2023-01-19T07:56:07.278Z,1.83
2023-01-19T08:02:12.230Z,2.33
2023-01-19T08:05:17.091Z,1.92
2023-01-19T08:08:19.289Z,1.88
2023-01-19T08:11:22.861Z,2.47
2023-01-19T08:14:24.428Z,1.92
2023-01-19T08:17:27.847Z,1.42
2023-01-19T08:20:30.917Z,2.00
2023-01-19T08:23:34.466Z,1.75
2023-01-19T08:26:36.075Z,2.10
2023-01-19T08:29:39.841Z,2.50
2023-01-19T08:32:41.309Z,1.80
2023-01-19T08:35:50.056Z,1.75
2023-01-19T08:38:51.947Z,2.45
2023-01-19T08:41:55.597Z,2.28
2023-01-19T08:44:58.302Z,1.65
2023-01-19T08:48:02.891Z,2.10
2023-01-19T08:51:04.488Z,1.70
2023-01-19T08:54:08.043Z,2.42
2023-01-19T08:57:09.605Z,1.83
2023-01-19T09:00:13.727Z,2.13
2023-01-19T09:03:15.465Z,3.10
2023-01-19T09:06:19.046Z,2.47
2023-01-19T09:09:20.522Z,2.53
2023-01-19T09:12:24.077Z,1.92
2023-01-19T09:15:25.707Z,2.38
2023-01-19T09:18:29.502Z,3.60
2023-01-19T09:21:31.024Z,2.53
2023-01-19T09:24:34.607Z,2.35
2023-01-19T09:27:36.133Z,2.65
2023-01-19T09:30:41.625Z,2.15
2023-01-19T09:33:43.134Z,1.63
2023-01-19T09:36:46.999Z,2.22
2023-01-19T09:39:48.516Z,1.80
2023-01-19T09:42:58.738Z,2.28
2023-01-19T09:46:03.651Z,2.08
2023-01-19T09:49:14.980Z,2.20
2023-01-19T09:52:17.757Z,1.83
2023-01-19T09:55:25.808Z,1.92
2023-01-19T09:58:28.455Z,1.88
2023-01-19T10:01:46.242Z,1.67
2023-01-19T10:04:54.837Z,2.65
2023-01-19T10:08:15.733Z,1.60
2023-01-19T10:11:41.861Z,1.88
2023-01-19T10:15:21.077Z,2.65
2023-01-19T10:18:33.957Z,2.03
2023-01-19T10:21:42.643Z,1.80
2023-01-19T10:24:45.704Z,2.45
2023-01-19T10:27:49.416Z,2.45
2023-01-19T10:30:53.580Z,3.53
2023-01-19T10:33:57.662Z,2.20
2023-01-19T10:37:05.091Z,2.28
2023-01-19T10:40:08.609Z,2.25
2023-01-19T10:43:33.224Z,2.05
2023-01-19T10:46:41.498Z,2.47
2023-01-19T10:49:44.143Z,2.22
2023-01-19T10:52:51.200Z,1.83
2023-01-19T10:56:23.299Z,2.53
2023-01-19T10:59:34.198Z,2.28
2023-01-19T11:02:35.791Z,2.08
2023-01-19T11:05:41.494Z,1.90
2023-01-19T11:08:45.329Z,2.13
2023-01-19T11:11:51.602Z,1.70
2023-01-19T11:14:53.638Z,1.73
2023-01-19T11:18:00.935Z,2.60
2023-01-19T11:21:12.374Z,3.33
2023-01-19T11:24:16.514Z,1.92
2023-01-19T11:27:20.135Z,1.90
2023-01-19T11:30:25.851Z,3.28
2023-01-19T11:33:49.867Z,0.93
2023-01-19T11:37:22.979Z,1.65
2023-01-19T11:40:24.480Z,2.20
2023-01-19T11:43:39.719Z,2.00
2023-01-19T11:46:50.065Z,2.08
2023-01-19T11:50:02.529Z,2.00
2023-01-19T11:53:15.854Z,2.42
2023-01-19T11:56:25.444Z,1.50
2023-01-19T11:59:27.488Z,2.58
2023-01-19T12:02:44.633Z,2.58
2023-01-19T12:05:49.509Z,2.05
2023-01-19T12:08:56.121Z,2.60
2023-01-19T12:12:03.525Z,1.92
2023-01-19T12:15:22.897Z,3.53
2023-01-19T12:18:29.184Z,1.40
2023-01-19T12:21:32.764Z,1.70
2023-01-19T12:24:44.040Z,1.70
2023-01-19T12:27:48.929Z,1.97
2023-01-19T12:30:51.552Z,1.80
2023-01-19T12:33:55.941Z,1.65
2023-01-19T12:37:03.347Z,1.83
2023-01-19T12:40:30.741Z,1.50
2023-01-19T12:43:32.252Z,2.05
2023-01-19T12:46:37.800Z,1.50
2023-01-19T12:50:05.923Z,1.90
2023-01-19T12:53:18.689Z,1.70
2023-01-19T12:56:38.709Z,1.90
2023-01-19T12:59:43.228Z,1.92
2023-01-19T13:02:47.034Z,2.15
2023-01-19T13:05:55.778Z,1.75
2023-01-19T13:08:59.635Z,2.00
2023-01-19T13:12:23.164Z,1.13
2023-01-19T13:15:34.818Z,1.58
2023-01-19T13:18:40.963Z,2.63
2023-01-19T13:21:53.586Z,2.03
2023-01-19T13:25:13.429Z,1.50
2023-01-19T13:28:18.404Z,2.13
2023-01-19T13:31:23.398Z,1.48
2023-01-19T13:34:27.171Z,2.23
2023-01-19T13:37:38.347Z,1.67
2023-01-19T13:40:40.432Z,1.90
2023-01-19T13:43:44.766Z,1.05
2023-01-19T13:46:47.664Z,1.27
2023-01-19T13:49:55.938Z,1.73
2023-01-19T13:52:58.781Z,2.00
2023-01-19T13:56:15.913Z,1.60
2023-01-19T13:59:17.406Z,1.08
2023-01-19T14:02:21.159Z,1.13
2023-01-19T14:05:27.544Z,0.95
2023-01-19T14:08:32.223Z,1.52
2023-01-19T14:11:33.976Z,1.48
2023-01-19T14:14:38.040Z,2.25
2023-01-19T14:17:41.426Z,1.52
2023-01-19T14:21:08.498Z,1.20
2023-01-19T14:24:17.273Z,1.40
2023-01-19T14:27:24.167Z,2.03
2023-01-19T14:30:26.356Z,1.67
2023-01-19T14:33:45.093Z,1.50
2023-01-19T14:36:50.981Z,1.48
2023-01-19T14:40:00.140Z,1.10
2023-01-19T14:43:05.652Z,1.63
2023-01-19T14:46:18.613Z,2.00
2023-01-19T14:49:34.402Z,1.50
2023-01-19T14:52:41.444Z,1.20
2023-01-19T14:55:55.093Z,1.48
2023-01-19T14:59:00.714Z,1.52
2023-01-19T15:02:02.376Z,1.63
2023-01-19T15:05:08.139Z,1.35
2023-01-19T15:08:19.493Z,1.80
2023-01-19T15:11:30.497Z,2.30
2023-01-19T15:14:32.020Z,2.30
2023-01-19T15:17:35.614Z,2.38
2023-01-19T15:20:37.130Z,1.98
2023-01-19T15:23:41.131Z,2.78
2023-01-19T15:26:43.089Z,1.52
2023-01-19T15:32:47.967Z,2.25
2023-01-19T15:35:52.117Z,1.38
2023-01-19T15:38:55.264Z,1.02
2023-01-19T15:41:59.151Z,1.17
2023-01-19T15:45:00.670Z,1.20
2023-01-19T15:48:06.806Z,1.80
2023-01-19T15:51:13.025Z,3.95
2023-01-19T15:54:16.906Z,2.10
2023-01-19T15:57:18.438Z,1.52
2023-01-19T16:00:22.035Z,1.77
2023-01-19T16:03:25.160Z,2.33
2023-01-19T16:06:29.591Z,2.58
2023-01-19T16:09:31.035Z,2.15
2023-01-19T16:12:35.265Z,2.40
2023-01-19T16:15:38.259Z,2.35
2023-01-19T16:18:41.775Z,2.35
2023-01-19T16:21:43.654Z,2.65
2023-01-19T16:27:49.540Z,1.90
2023-01-19T16:30:53.455Z,2.15
2023-01-19T16:33:55.030Z,2.47
2023-01-19T16:36:58.532Z,1.80
2023-01-19T16:40:00.044Z,3.92
2023-01-19T16:43:03.725Z,2.10
2023-01-19T16:46:05.358Z,2.60
2023-01-19T16:49:15.684Z,2.38
2023-01-19T16:52:17.215Z,2.42
2023-01-19T16:55:20.728Z,3.05
2023-01-19T16:58:23.027Z,2.80
2023-01-19T17:01:29.269Z,2.38
2023-01-19T17:04:30.935Z,3.00
2023-01-19T17:07:34.632Z,3.40
2023-01-19T17:10:36.517Z,3.38
2023-01-19T17:13:40.094Z,3.17
2023-01-19T17:16:42.593Z,2.95
2023-01-19T17:19:46.412Z,2.80
2023-01-19T17:22:47.949Z,3.00
2023-01-19T17:25:52.966Z,2.95
2023-01-19T17:28:59.281Z,4.03
2023-01-19T17:32:03.192Z,3.60
2023-01-19T17:35:05.111Z,4.32
2023-01-19T17:38:08.665Z,4.63
2023-01-19T17:41:20.746Z,5.13
2023-01-19T17:47:26.000Z,5.15
2023-01-19T17:50:31.000Z,3.72
2023-01-19T17:53:33.432Z,3.65
2023-01-19T17:56:37.999Z,2.83
2023-01-19T17:59:43.082Z,2.45
2023-01-19T18:02:50.218Z,2.15
2023-01-19T18:05:55.477Z,2.00
2023-01-19T18:08:59.604Z,1.92
2023-01-19T18:12:01.272Z,1.80
2023-01-19T18:15:05.724Z,1.70
2023-01-19T18:18:07.118Z,2.50
2023-01-19T18:21:12.740Z,2.90
2023-01-19T18:24:14.230Z,3.90
2023-01-19T18:27:17.844Z,3.20
2023-01-19T18:30:19.758Z,4.25
2023-01-19T18:33:23.470Z,5.15
2023-01-19T18:36:25.453Z,4.97
2023-01-19T18:39:30.520Z,5.65
2023-01-19T18:42:33.611Z,6.70
2023-01-19T18:45:39.245Z,7.00
2023-01-19T18:48:40.755Z,8.32
2023-01-19T18:51:44.269Z,9.27
2023-01-19T18:54:47.882Z,9.23
2023-01-19T18:57:54.039Z,10.52
2023-01-19T19:00:56.466Z,11.75
2023-01-19T19:04:01.035Z,11.05
2023-01-19T19:07:02.670Z,11.27
2023-01-19T19:10:06.691Z,11.20
2023-01-19T19:13:11.278Z,12.27
2023-01-19T19:16:14.788Z,12.57
2023-01-19T19:19:16.683Z,12.32
2023-01-19T19:25:27.016Z,12.55
2023-01-19T19:28:30.656Z,13.65
2023-01-19T19:31:32.322Z,13.13
2023-01-19T19:37:37.290Z,12.15
2023-01-19T19:40:40.778Z,13.73
2023-01-19T19:43:42.566Z,14.40
2023-01-19T19:49:47.647Z,13.60
2023-01-19T19:52:51.130Z,15.30
2023-01-19T19:55:57.583Z,15.25
2023-01-19T19:59:01.069Z,16.05
2023-01-19T20:02:02.597Z,16.27
2023-01-19T20:05:06.370Z,17.58
2023-01-19T20:08:07.860Z,15.85
2023-01-19T20:11:14.080Z,17.95
2023-01-19T20:14:15.813Z,18.90
2023-01-19T20:20:22.947Z,18.30
2023-01-19T20:23:26.576Z,19.02
2023-01-19T20:26:34.205Z,17.63
2023-01-19T20:29:37.747Z,19.10
2023-01-19T20:32:40.086Z,18.65
2023-01-19T20:35:43.563Z,19.65
2023-01-19T20:38:45.271Z,19.13
2023-01-19T20:44:54.989Z,18.95
2023-01-19T20:47:58.482Z,19.17
2023-01-19T20:51:05.947Z,20.67
2023-01-19T20:54:11.077Z,19.15
2023-01-19T20:57:12.662Z,20.92
2023-01-19T21:00:16.359Z,20.27
2023-01-19T21:03:17.995Z,19.40
2023-01-19T21:06:21.966Z,20.65
2023-01-19T21:09:23.501Z,21.08
2023-01-19T21:12:27.018Z,21.50
2023-01-19T21:15:28.545Z,21.95
2023-01-19T21:18:32.204Z,20.85
2023-01-19T21:21:33.751Z,21.48
2023-01-19T21:24:37.275Z,20.65
2023-01-19T21:27:38.780Z,21.83
2023-01-19T21:30:42.287Z,20.73
2023-01-19T21:33:43.757Z,20.20
2023-01-19T21:36:47.357Z,20.60
2023-01-19T21:39:48.845Z,20.05
2023-01-19T21:42:52.471Z,19.75
2023-01-19T21:45:53.983Z,20.88
2023-01-19T21:49:06.023Z,19.55
2023-01-19T21:52:07.495Z,21.33
2023-01-19T21:55:11.366Z,21.17
2023-01-19T21:58:12.997Z,21.55
2023-01-19T22:01:16.656Z,21.40
2023-01-19T22:04:18.317Z,19.27
2023-01-19T22:07:21.889Z,19.13
2023-01-19T22:10:23.385Z,18.23
2023-01-19T22:13:26.889Z,18.75
2023-01-19T22:16:29.145Z,18.58
2023-01-19T22:19:32.638Z,16.90
2023-01-19T22:22:34.172Z,18.92
2023-01-19T22:25:37.810Z,15.57
2023-01-19T22:28:39.426Z,15.07
2023-01-19T22:31:45.094Z,12.30
2023-01-19T22:34:46.933Z,13.48
2023-01-19T22:37:50.474Z,12.30
2023-01-19T22:40:52.076Z,12.27
2023-01-19T22:43:57.769Z,11.95
2023-01-19T22:46:59.259Z,12.98
2023-01-19T22:50:02.858Z,12.38
2023-01-19T22:53:04.336Z,12.88
2023-01-19T22:56:13.757Z,14.95
2023-01-19T22:59:15.253Z,14.38
2023-01-19T23:02:20.772Z,14.50
2023-01-19T23:08:26.016Z,14.27
2023-01-19T23:11:31.774Z,14.27
2023-01-19T23:14:36.243Z,13.20
2023-01-19T23:17:37.759Z,13.55
2023-01-19T23:20:41.299Z,14.57
2023-01-19T23:23:44.352Z,14.65
2023-01-19T23:26:50.902Z,14.88
2023-01-19T23:29:52.578Z,14.35
2023-01-19T23:35:57.448Z,13.57
2023-01-19T23:39:16.108Z,15.95
2023-01-19T23:42:17.614Z,16.27
2023-01-19T23:45:21.139Z,15.95
2023-01-19T23:48:22.744Z,18.02
2023-01-19T23:51:28.533Z,16.92
2023-01-19T23:57:33.450Z,18.17
